Time;durP1;ratioP1;P1;durP2;ratioP2;P2;SDS_P1;SDS_P2;PMS_P1;PMS_P2;Temp;Humidity;BMP_temperature;BMP_pressure;BME280_temperature;BME280_humidity;BME280_pressure;Samples;Min_cycle;Max_cycle;Signal;HPM_P1;HPM_P2
2020/12/15 00:01:44;;;;;;;44.75;25.08;;;;;;;3.16;77.89;97043.64;1758012;81;21598;-82
2020/12/15 00:04:12;;;;;;;39.15;21.45;;;;;;;3.15;77.65;97041.51;1789381;80;21204;-82
2020/12/15 00:06:41;;;;;;;38.50;21.17;;;;;;;3.13;77.61;97042.52;1758220;81;21153;-84
2020/12/15 00:09:10;;;;;;;39.85;22.55;;;;;;;3.11;77.67;97042.61;1789354;80;21057;-82
2020/12/15 00:11:39;;;;;;;42.95;24.00;;;;;;;3.14;77.59;97039.84;1758134;81;21386;-82
2020/12/15 00:14:09;;;;;;;43.08;24.05;;;;;;;3.16;77.39;97035.37;1789303;80;21180;-80
2020/12/15 00:16:37;;;;;;;37.63;23.52;;;;;;;3.13;77.32;97034.70;1758189;81;21158;-83
2020/12/15 00:19:06;;;;;;;39.23;22.25;;;;;;;3.12;77.46;97033.03;1792443;79;21010;-82
2020/12/15 00:21:35;;;;;;;41.88;21.65;;;;;;;3.14;77.51;97035.07;1761469;81;21138;-82
2020/12/15 00:24:04;;;;;;;39.70;22.55;;;;;;;3.17;77.51;97036.20;1789572;80;21433;-81
2020/12/15 00:26:32;;;;;;;43.90;23.57;;;;;;;3.16;77.48;97030.16;1758184;81;21130;-82
2020/12/15 00:29:02;;;;;;;41.73;22.90;;;;;;;3.17;77.34;97033.13;1789453;80;21176;-82
2020/12/15 00:31:35;;;;;;;35.03;20.02;;;;;;;3.17;77.22;97027.09;1758205;81;21150;-81
2020/12/15 00:34:04;;;;;;;37.30;21.33;;;;;;;3.12;77.09;97033.03;1789513;80;21105;-81
2020/12/15 00:36:33;;;;;;;34.10;19.35;;;;;;;3.06;77.27;97033.41;1758311;81;21202;-82
2020/12/15 00:39:02;;;;;;;37.75;20.57;;;;;;;3.03;77.39;97032.30;1789173;80;21125;-80
2020/12/15 00:41:31;;;;;;;37.28;20.77;;;;;;;2.97;77.75;97032.20;1758673;81;21060;-80
2020/12/15 00:43:59;;;;;;;40.35;22.65;;;;;;;3.01;77.87;97028.47;1789368;80;21066;-83
2020/12/15 00:46:28;;;;;;;40.12;21.50;;;;;;;2.99;77.58;97029.50;1758834;81;21134;-81
2020/12/15 00:48:57;;;;;;;39.98;23.00;;;;;;;2.91;77.93;97036.47;1786916;80;21367;-82
2020/12/15 00:51:26;;;;;;;40.78;21.30;;;;;;;2.92;78.03;97031.64;1716326;82;21092;-82
2020/12/15 00:53:56;;;;;;;38.70;22.30;;;;;;;2.87;78.14;97024.09;1769772;81;21086;-81
2020/12/15 00:56:25;;;;;;;47.40;27.15;;;;;;;2.93;78.46;97030.70;1739587;82;21126;-82
2020/12/15 00:58:53;;;;;;;46.53;26.17;;;;;;;2.97;78.53;97029.60;1769532;81;21138;-81
2020/12/15 01:01:23;;;;;;;42.20;24.82;;;;;;;3.01;78.63;97034.97;1739832;82;21261;-83
2020/12/15 01:03:52;;;;;;;44.30;26.90;;;;;;;3.07;78.58;97032.47;1769318;81;21607;-81
2020/12/15 01:06:22;;;;;;;42.67;23.85;;;;;;;3.06;78.54;97026.44;1738794;82;21191;-80
2020/12/15 01:08:51;;;;;;;50.60;30.60;;;;;;;3.05;78.38;97026.53;1769320;81;21190;-80
2020/12/15 01:11:30;;;;;;;50.80;27.25;;;;;;;3.02;78.37;97028.00;1738878;82;21612;-82
2020/12/15 01:14:00;;;;;;;53.75;29.35;;;;;;;3.01;78.36;97028.94;1769552;81;21425;-82
2020/12/15 01:16:31;;;;;;;47.67;27.35;;;;;;;3.00;78.53;97028.57;1738771;82;21170;-81
2020/12/15 01:19:00;;;;;;;44.77;25.80;;;;;;;3.00;78.54;97024.20;1769331;81;21161;-81
2020/12/15 01:21:32;;;;;;;43.98;24.92;;;;;;;3.02;78.69;97029.30;1738699;82;21229;-81
2020/12/15 01:24:02;;;;;;;47.25;27.60;;;;;;;3.02;78.62;97034.04;1769740;81;21153;-82
2020/12/15 01:26:33;;;;;;;52.45;29.87;;;;;;;3.01;78.58;97027.17;1739148;82;21339;-81
2020/12/15 01:29:02;;;;;;;52.40;30.55;;;;;;;3.02;78.67;97028.00;1769889;81;21189;-81
2020/12/15 01:31:31;;;;;;;54.05;30.52;;;;;;;3.02;78.39;97031.91;1738859;82;21067;-81
2020/12/15 01:34:10;;;;;;;55.65;33.50;;;;;;;2.99;78.47;97030.34;1768288;81;21079;-81
2020/12/15 01:36:46;;;;;;;46.00;27.02;;;;;;;3.04;78.81;97041.31;1739087;82;21135;-81
2020/12/15 01:39:16;;;;;;;48.10;27.35;;;;;;;3.13;78.74;97032.94;1769370;81;21479;-81
2020/12/15 01:41:47;;;;;;;49.70;28.55;;;;;;;3.18;78.48;97032.20;1739079;82;21103;-82
2020/12/15 01:44:17;;;;;;;48.33;25.80;;;;;;;3.20;78.37;97026.89;1769717;81;21078;-81
2020/12/15 01:46:46;;;;;;;42.13;23.00;;;;;;;3.17;78.19;97022.72;1739092;82;21059;-82
2020/12/15 01:49:17;;;;;;;38.15;19.70;;;;;;;3.14;78.09;97025.53;1769524;80;21073;-81
2020/12/15 01:51:54;;;;;;;41.18;22.90;;;;;;;3.08;78.02;97026.34;1717903;82;22145;-81
2020/12/15 01:54:24;;;;;;;51.18;26.82;;;;;;;3.06;78.29;97026.44;1769191;81;21121;-82
2020/12/15 01:56:55;;;;;;;50.38;28.57;;;;;;;3.12;78.48;97026.53;1738726;82;21167;-81
2020/12/15 01:59:36;;;;;;;46.42;26.12;;;;;;;3.17;78.50;97027.92;1769667;81;21232;-81
2020/12/15 02:02:05;;;;;;;45.58;25.32;;;;;;;3.23;78.17;97029.80;1739219;82;21155;-82
2020/12/15 02:04:35;;;;;;;53.40;30.50;;;;;;;3.25;77.99;97025.32;1739693;82;21282;-81
2020/12/15 02:07:07;;;;;;;48.33;27.13;;;;;;;3.27;77.96;97029.52;1773150;79;21149;-81
2020/12/15 02:09:36;;;;;;;46.05;26.82;;;;;;;3.29;77.55;97029.42;1740796;82;21131;-83
2020/12/15 02:12:06;;;;;;;42.67;24.72;;;;;;;3.25;77.41;97029.22;1767848;81;21090;-81
2020/12/15 02:14:37;;;;;;;45.00;25.05;;;;;;;3.20;77.31;97031.66;1738827;82;21237;-84
2020/12/15 02:17:06;;;;;;;48.52;25.52;;;;;;;3.15;77.50;97032.87;1769667;81;22484;-80
2020/12/15 02:19:41;;;;;;;41.65;24.52;;;;;;;3.17;77.71;97027.92;1735396;82;21186;-81
2020/12/15 02:22:10;;;;;;;43.28;24.60;;;;;;;3.19;77.55;97033.03;1769280;81;21082;-81
2020/12/15 02:24:41;;;;;;;45.98;24.60;;;;;;;3.20;77.26;97028.20;1738732;82;21561;-82
2020/12/15 02:27:11;;;;;;;43.42;23.00;;;;;;;3.18;77.18;97032.20;1769409;81;21606;-83
2020/12/15 02:29:42;;;;;;;41.02;22.65;;;;;;;3.15;77.03;97038.91;1738693;82;21281;-83
2020/12/15 02:32:13;;;;;;;42.13;24.10;;;;;;;3.02;77.01;97043.61;1769515;81;21152;-81
2020/12/15 02:34:43;;;;;;;42.98;24.20;;;;;;;2.93;77.36;97041.11;1738710;82;21182;-82
2020/12/15 02:37:13;;;;;;;44.90;24.02;;;;;;;2.85;77.77;97040.73;1769386;81;21149;-81
2020/12/15 02:39:44;;;;;;;41.85;22.75;;;;;;;2.86;78.22;97042.41;1736633;82;21581;-82
2020/12/15 02:42:14;;;;;;;39.10;20.65;;;;;;;2.94;78.23;97045.38;1736110;82;21431;-81
2020/12/15 02:44:43;;;;;;;39.40;20.45;;;;;;;3.02;78.04;97039.24;1738843;82;21129;-81
2020/12/15 02:47:14;;;;;;;38.73;18.62;;;;;;;3.10;77.63;97038.34;1768727;81;21809;-82
2020/12/15 02:49:43;;;;;;;34.08;18.32;;;;;;;3.11;77.26;97040.47;1738884;81;21547;-81
2020/12/15 02:52:15;;;;;;;29.70;17.32;;;;;;;3.07;76.95;97043.71;1769302;81;21118;-82
2020/12/15 02:54:49;;;;;;;32.00;18.00;;;;;;;3.06;76.77;97038.61;1738790;82;21212;-81
2020/12/15 02:57:18;;;;;;;32.53;18.60;;;;;;;3.05;76.58;97039.08;1769521;81;21221;-83
2020/12/15 02:59:48;;;;;;;27.10;16.25;;;;;;;3.02;76.54;97039.24;1738787;82;21083;-80
2020/12/15 03:02:20;;;;;;;26.02;16.17;;;;;;;3.04;76.38;97040.47;1769529;81;21054;-82
2020/12/15 03:04:52;;;;;;;26.20;15.72;;;;;;;3.02;75.92;97034.04;1738443;82;21234;-82
2020/12/15 03:07:21;;;;;;;22.77;14.47;;;;;;;2.99;75.56;97042.05;1769413;81;21383;-84
2020/12/15 03:09:51;;;;;;;24.20;14.35;;;;;;;2.92;75.45;97053.28;1738819;82;21521;-81
2020/12/15 03:12:22;;;;;;;23.92;13.90;;;;;;;2.91;75.39;97053.38;1769372;81;21614;-81
2020/12/15 03:14:53;;;;;;;27.40;16.80;;;;;;;2.82;75.18;97056.04;1738754;82;21607;-81
2020/12/15 03:17:22;;;;;;;29.45;18.23;;;;;;;2.60;75.57;97053.00;1769476;81;21097;-80
2020/12/15 03:19:53;;;;;;;26.73;15.25;;;;;;;2.47;76.15;97059.84;1739149;82;21595;-82
2020/12/15 03:22:23;;;;;;;24.80;14.75;;;;;;;2.32;76.70;97059.80;1769556;81;21206;-81
2020/12/15 03:24:54;;;;;;;31.25;15.72;;;;;;;2.34;77.41;97058.41;1738536;82;21670;-80
2020/12/15 03:27:24;;;;;;;23.38;14.35;;;;;;;2.46;77.44;97063.38;1769454;81;21129;-83
2020/12/15 03:29:53;;;;;;;31.95;15.35;;;;;;;2.51;77.30;97070.45;1738949;82;21151;-80
2020/12/15 03:32:23;;;;;;;25.80;14.80;;;;;;;2.52;77.25;97064.32;1769456;81;21366;-81
2020/12/15 03:34:53;;;;;;;27.85;15.13;;;;;;;2.53;77.29;97064.69;1738859;82;21166;-81
2020/12/15 03:37:23;;;;;;;26.65;15.32;;;;;;;2.54;77.46;97064.59;1769518;81;21139;-82
2020/12/15 03:39:53;;;;;;;29.85;14.50;;;;;;;2.57;77.50;97068.33;1738924;82;21211;-81
2020/12/15 03:42:25;;;;;;;28.57;15.28;;;;;;;2.55;77.49;97072.80;1738072;82;21145;-81
2020/12/15 03:44:54;;;;;;;31.60;14.75;;;;;;;2.54;77.39;97070.25;1769424;81;21203;-82
2020/12/15 03:47:23;;;;;;;28.47;15.03;;;;;;;2.49;77.45;97071.84;1738947;82;21187;-81
2020/12/15 03:49:52;;;;;;;25.17;14.95;;;;;;;2.44;77.46;97079.53;1769272;80;21165;-80
2020/12/15 03:52:22;;;;;;;31.77;16.55;;;;;;;2.40;77.69;97083.59;1742345;80;21125;-79
2020/12/15 03:54:59;;;;;;;29.45;15.83;;;;;;;2.37;77.68;97077.27;1773591;81;21035;-81
2020/12/15 03:57:41;;;;;;;31.52;16.90;;;;;;;2.33;77.94;97080.13;1737220;82;21162;-82
2020/12/15 04:00:27;;;;;;;36.90;18.67;;;;;;;2.32;78.11;97075.39;1769176;81;21174;-80
2020/12/15 04:03:00;;;;;;;50.12;23.55;;;;;;;2.28;78.21;97082.14;1736909;82;21242;-82
2020/12/15 04:05:32;;;;;;;51.42;24.30;;;;;;;2.25;78.57;97084.89;1736761;82;21670;-80
2020/12/15 04:08:01;;;;;;;37.75;18.95;;;;;;;2.30;78.67;97085.48;1769502;81;21178;-81
2020/12/15 04:10:31;;;;;;;30.40;15.88;;;;;;;2.36;78.58;97079.94;1739155;82;22269;-81
2020/12/15 04:13:00;;;;;;;30.80;17.65;;;;;;;2.44;78.28;97082.13;1769577;81;21074;-81
2020/12/15 04:15:30;;;;;;;32.35;19.12;;;;;;;2.45;77.95;97090.30;1738213;82;21179;-82
2020/12/15 04:18:03;;;;;;;29.92;17.07;;;;;;;2.36;77.89;97089.87;1769545;81;21137;-80
2020/12/15 04:20:33;;;;;;;37.20;18.75;;;;;;;2.28;78.14;97096.44;1738984;82;21102;-81
2020/12/15 04:23:02;;;;;;;43.75;21.15;;;;;;;2.27;78.48;97098.20;1737315;82;21263;-82
2020/12/15 04:25:34;;;;;;;29.90;18.12;;;;;;;2.25;78.08;97102.62;1738862;82;21172;-82
2020/12/15 04:28:04;;;;;;;32.35;17.57;;;;;;;2.27;78.22;97103.39;1769408;81;21141;-81
2020/12/15 04:30:33;;;;;;;35.30;19.30;;;;;;;2.30;78.13;97104.97;1738788;82;21158;-82
2020/12/15 04:33:02;;;;;;;37.93;21.52;;;;;;;2.24;78.09;97106.61;1769436;81;21572;-82
2020/12/15 04:35:33;;;;;;;42.13;23.05;;;;;;;2.20;78.30;97100.77;1737559;82;21207;-82
2020/12/15 04:38:02;;;;;;;43.20;22.93;;;;;;;2.22;78.63;97103.27;1769355;81;21617;-81
2020/12/15 04:40:33;;;;;;;39.20;20.90;;;;;;;2.27;78.93;97103.86;1739017;82;21178;-82
2020/12/15 04:43:04;;;;;;;38.98;20.90;;;;;;;2.36;78.98;97107.22;1745013;81;21605;-83
2020/12/15 04:45:35;;;;;;;42.88;22.60;;;;;;;2.43;78.80;97107.72;1692654;82;21587;-83
2020/12/15 04:48:09;;;;;;;43.50;21.15;;;;;;;2.44;78.42;97108.12;1769435;81;21387;-82
2020/12/15 04:50:59;;;;;;;37.17;21.05;;;;;;;2.45;78.55;97112.39;1738791;81;21158;-81
2020/12/15 04:53:30;;;;;;;36.68;20.55;;;;;;;2.42;78.29;97110.78;1769143;81;21106;-82
2020/12/15 04:56:28;;;;;;;44.88;24.40;;;;;;;2.43;78.25;97113.75;1737627;82;21091;-81
2020/12/15 04:59:00;;;;;;;41.15;21.40;;;;;;;2.36;78.27;97117.16;1745145;81;21107;-81
2020/12/15 05:01:31;;;;;;;37.95;21.82;;;;;;;2.39;78.35;97113.10;1738515;82;21384;-84
2020/12/15 05:04:11;;;;;;;36.68;20.45;;;;;;;2.37;78.40;97108.89;1769252;81;21097;-83
2020/12/15 05:06:42;;;;;;;46.37;23.65;;;;;;;2.37;78.40;97116.26;1739184;82;21186;-81
2020/12/15 05:09:12;;;;;;;37.33;20.65;;;;;;;2.33;78.27;97110.02;1769705;81;21075;-82
2020/12/15 05:11:42;;;;;;;41.65;23.52;;;;;;;2.28;78.40;97111.56;1738948;82;21711;-82
2020/12/15 05:14:16;;;;;;;40.28;22.05;;;;;;;2.24;78.55;97120.44;1738752;82;21428;-83
2020/12/15 05:16:45;;;;;;;47.30;24.15;;;;;;;2.20;78.62;97121.55;1770507;81;21115;-80
2020/12/15 05:19:16;;;;;;;43.48;23.02;;;;;;;2.16;78.87;97121.33;1736122;82;21198;-83
2020/12/15 05:21:57;;;;;;;43.30;23.70;;;;;;;2.14;78.97;97125.78;1769463;81;21062;-83
2020/12/15 05:24:29;;;;;;;48.92;26.30;;;;;;;2.12;78.90;97129.74;1739085;82;21107;-83
2020/12/15 05:26:59;;;;;;;39.50;22.93;;;;;;;2.07;79.02;97117.92;1769374;81;21383;-82
2020/12/15 05:29:29;;;;;;;39.15;22.77;;;;;;;2.05;78.98;97128.41;1715860;82;21099;-81
2020/12/15 05:32:02;;;;;;;42.53;25.27;;;;;;;2.04;79.09;97129.80;1769399;81;21205;-82
2020/12/15 05:34:33;;;;;;;45.58;24.32;;;;;;;2.01;79.21;97126.89;1738010;82;21163;-82
2020/12/15 05:37:14;;;;;;;55.75;28.23;;;;;;;2.00;79.40;97128.27;1681412;85;21153;-83
2020/12/15 05:39:46;;;;;;;43.05;23.52;;;;;;;2.01;79.75;97126.05;1808112;79;21301;-84
2020/12/15 05:42:18;;;;;;;36.28;19.37;;;;;;;2.04;79.71;97128.03;1741567;82;21253;-83
2020/12/15 05:44:47;;;;;;;34.53;17.10;;;;;;;2.06;79.49;97124.05;1769928;81;21090;-85
2020/12/15 05:47:24;;;;;;;34.90;18.30;;;;;;;2.09;79.27;97123.43;1738886;82;21071;-82
2020/12/15 05:49:54;;;;;;;29.55;17.42;;;;;;;2.11;78.96;97122.88;1777419;80;21168;-83
2020/12/15 05:52:30;;;;;;;37.95;19.85;;;;;;;2.18;78.71;97131.62;1799151;79;21207;-83
2020/12/15 05:55:09;;;;;;;35.10;20.62;;;;;;;2.17;78.52;97127.36;1798187;79;21075;-81
2020/12/15 05:57:37;;;;;;;36.68;19.32;;;;;;;2.16;78.68;97137.38;1797793;79;21042;-85
2020/12/15 06:00:11;;;;;;;36.35;21.33;;;;;;;2.12;78.48;97141.89;1742899;79;21165;-83
2020/12/15 06:02:42;;;;;;;39.95;20.90;;;;;;;2.08;78.67;97135.22;1719503;83;21750;-81
2020/12/15 06:05:11;;;;;;;36.23;19.73;;;;;;;2.09;78.75;97141.62;1764754;81;21366;-84
2020/12/15 06:07:41;;;;;;;37.65;20.77;;;;;;;2.11;78.74;97138.92;1764846;80;21496;-84
2020/12/15 06:10:10;;;;;;;39.63;22.50;;;;;;;2.15;78.67;97145.64;1674898;83;21166;-82
2020/12/15 06:12:38;;;;;;;42.17;22.27;;;;;;;2.14;78.70;97148.70;1764755;81;21078;-84
2020/12/15 06:15:07;;;;;;;50.12;23.90;;;;;;;2.21;78.95;97142.70;1764748;81;21051;-83
2020/12/15 06:17:35;;;;;;;44.42;22.52;;;;;;;2.31;78.76;97141.72;1764707;81;21486;-82
2020/12/15 06:20:05;;;;;;;36.40;20.12;;;;;;;2.34;78.22;97136.37;1718696;82;21177;-81
2020/12/15 06:22:35;;;;;;;40.30;20.72;;;;;;;2.33;77.82;97143.33;1669121;83;21161;-84
2020/12/15 06:25:08;;;;;;;75.20;35.75;;;;;;;2.25;77.56;97144.66;1721520;82;21171;-86
2020/12/15 06:27:36;;;;;;;352.52;116.08;;;;;;;2.13;77.94;97150.06;1759554;81;21114;-77
2020/12/15 06:30:06;;;;;;;251.90;82.95;;;;;;;2.18;78.33;97152.42;1743065;81;22203;-78
2020/12/15 06:32:36;;;;;;;208.50;72.92;;;;;;;2.20;78.19;97152.73;1757074;81;21198;-78
2020/12/15 06:35:11;;;;;;;127.15;49.33;;;;;;;2.17;78.21;97154.64;1757189;81;21180;-81
2020/12/15 06:37:36;;;;;;;89.30;39.95;;;;;;;2.16;78.36;97159.00;1756931;81;21522;-80
2020/12/15 06:40:05;;;;;;;86.57;39.33;;;;;;;2.20;78.37;97155.33;1734442;81;21364;-80
2020/12/15 06:42:36;;;;;;;117.50;47.67;;;;;;;2.20;78.02;97167.48;1721996;81;21368;-79
2020/12/15 06:45:09;;;;;;;147.57;60.30;;;;;;;2.16;78.08;97170.69;1731469;81;21553;-82
2020/12/15 06:47:40;;;;;;;130.47;48.98;;;;;;;2.17;78.11;97169.77;1751685;81;21184;-80
2020/12/15 06:50:13;;;;;;;200.78;70.95;;;;;;;2.23;77.83;97173.80;1700452;81;21108;-78
2020/12/15 06:52:43;;;;;;;;;;;;;;;2.25;77.96;97171.94;1780039;80;21275;-79
2020/12/15 06:55:11;;;;;;;146.85;55.45;;;;;;;2.33;77.81;97177.11;1781928;80;21985;-79
2020/12/15 06:57:41;;;;;;;92.42;35.78;;;;;;;2.34;77.47;97180.08;1782704;80;21101;-80
2020/12/15 07:00:12;;;;;;;63.48;25.25;;;;;;;2.38;77.10;97176.41;1783658;80;21124;-78
2020/12/15 07:02:46;;;;;;;46.23;25.35;;;;;;;2.36;76.85;97180.83;1781497;79;21145;-78
2020/12/15 07:05:20;;;;;;;74.67;37.73;;;;;;;2.37;76.90;97181.66;1772237;79;21221;-80
2020/12/15 07:07:55;;;;;;;109.17;50.00;;;;;;;2.38;77.13;97174.27;1739020;81;21581;-81
2020/12/15 07:10:28;;;;;;;77.55;32.98;;;;;;;2.39;77.38;97181.97;1702124;83;21192;-77
2020/12/15 07:12:59;;;;;;;;;;;;;;;2.50;77.05;97179.25;1699083;83;21733;-77
2020/12/15 07:15:29;;;;;;;72.65;37.38;;;;;;;2.45;76.46;97178.20;1711359;83;20302;-79
2020/12/15 07:17:59;;;;;;;68.25;38.05;;;;;;;2.31;76.63;97176.37;1694452;82;21202;-80
2020/12/15 07:20:36;;;;;;;43.28;27.10;;;;;;;2.29;76.80;97174.76;1682441;82;21273;-80
2020/12/15 07:23:05;;;;;;;44.15;26.00;;;;;;;2.31;76.68;97185.47;1720300;82;21556;-80
2020/12/15 07:25:34;;;;;;;46.02;24.47;;;;;;;2.32;76.34;97177.20;1710779;82;21582;-82
2020/12/15 07:28:06;;;;;;;45.80;25.68;;;;;;;2.32;76.49;97175.91;1717744;82;21180;-81
2020/12/15 07:30:37;;;;;;;44.20;23.52;;;;;;;2.43;76.37;97185.22;1709855;82;22079;-82
2020/12/15 07:33:07;;;;;;;40.05;24.20;;;;;;;2.51;75.86;97190.86;1715235;82;21381;-80
2020/12/15 07:35:38;;;;;;;47.88;26.48;;;;;;;2.55;75.85;97187.17;1724502;82;22245;-83
2020/12/15 07:38:08;;;;;;;48.15;27.90;;;;;;;2.64;75.87;97185.34;1710988;82;21130;-81
2020/12/15 07:40:36;;;;;;;47.62;25.60;;;;;;;2.70;75.17;97194.56;1731971;82;21202;-82
2020/12/15 07:43:06;;;;;;;57.83;29.65;;;;;;;2.71;75.17;97188.90;1726357;82;21180;-80
2020/12/15 07:45:35;;;;;;;48.10;26.40;;;;;;;2.77;75.25;97194.59;1719769;83;21260;-82
2020/12/15 07:48:05;;;;;;;38.42;20.62;;;;;;;2.79;75.06;97199.27;1725434;81;21156;-82
2020/12/15 07:50:35;;;;;;;35.63;19.98;;;;;;;2.77;74.91;97197.66;1725629;83;21165;-80
2020/12/15 07:53:11;;;;;;;34.63;21.33;;;;;;;2.80;74.95;97201.41;1733918;82;21150;-80
2020/12/15 07:55:40;;;;;;;45.67;21.70;;;;;;;2.77;74.94;97197.66;1736192;82;21222;-83
2020/12/15 07:58:15;;;;;;;36.30;20.00;;;;;;;2.76;74.90;97198.13;1708397;82;22076;-81
2020/12/15 08:00:45;;;;;;;26.82;16.67;;;;;;;2.79;75.09;97200.56;1773253;80;21278;-82
2020/12/15 08:03:18;;;;;;;33.00;19.37;;;;;;;2.90;74.96;97201.23;1781271;80;21212;-82
2020/12/15 08:05:47;;;;;;;34.30;19.00;;;;;;;3.02;74.95;97198.41;1772828;80;21184;-83
2020/12/15 08:08:17;;;;;;;44.05;22.42;;;;;;;3.10;74.69;97200.95;1743419;82;21622;-83
2020/12/15 08:10:47;;;;;;;42.65;22.32;;;;;;;3.09;74.54;97207.56;1750375;80;21650;-81
2020/12/15 08:13:16;;;;;;;36.88;21.48;;;;;;;3.11;74.88;97211.73;1777274;80;21130;-81
2020/12/15 08:15:48;;;;;;;50.17;22.35;;;;;;;3.17;74.78;97213.15;1777732;80;21593;-83
2020/12/15 08:18:17;;;;;;;42.70;22.90;;;;;;;3.23;74.41;97214.56;1767160;80;21483;-81
2020/12/15 08:20:47;;;;;;;56.90;26.15;;;;;;;3.31;74.26;97215.78;1771867;80;21037;-81
2020/12/15 08:23:17;;;;;;;48.55;25.48;;;;;;;3.31;74.00;97208.44;1770310;80;21546;-80
2020/12/15 08:25:46;;;;;;;60.43;27.70;;;;;;;3.34;73.90;97213.48;1745883;80;21109;-81
2020/12/15 08:30:57;;;;;;;54.77;27.93;;;;;;;3.43;74.21;97210.33;1849894;77;22720;-83
2020/12/15 08:33:28;;;;;;;51.10;25.50;;;;;;;3.39;74.13;97213.59;1819575;78;21109;-81
2020/12/15 08:36:02;;;;;;;44.48;23.80;;;;;;;3.40;74.20;97217.03;1819653;78;22028;-81
2020/12/15 08:38:33;;;;;;;;;;;;;;;3.41;74.03;97215.62;1820946;78;21625;-80
2020/12/15 08:41:05;;;;;;;57.13;27.52;;;;;;;3.37;74.23;97210.69;1819786;78;20310;-82
2020/12/15 08:43:34;;;;;;;65.47;37.17;;;;;;;3.32;74.04;97216.18;1780385;80;21204;-82
2020/12/15 08:46:06;;;;;;;57.30;25.75;;;;;;;3.29;74.25;97215.51;1819815;78;21042;-83
2020/12/15 08:48:35;;;;;;;56.10;29.92;;;;;;;3.32;74.25;97216.61;1751519;80;22272;-81
2020/12/15 08:51:13;;;;;;;65.00;29.10;;;;;;;3.32;74.13;97212.71;1800243;78;21090;-83
2020/12/15 08:53:43;;;;;;;59.65;29.55;;;;;;;3.30;74.09;97218.02;1787435;80;21114;-81
2020/12/15 08:56:16;;;;;;;61.18;30.68;;;;;;;3.34;74.25;97214.31;1787506;80;21126;-82
2020/12/15 08:58:46;;;;;;;64.37;31.77;;;;;;;3.43;74.16;97212.92;1787523;78;21147;-84
2020/12/15 09:01:15;;;;;;;69.75;32.80;;;;;;;3.51;73.84;97213.80;1751706;80;21656;-80
2020/12/15 09:03:46;;;;;;;76.97;39.18;;;;;;;3.50;73.83;97207.76;1795985;78;21168;-82
2020/12/15 09:06:15;;;;;;;64.75;33.85;;;;;;;3.44;73.58;97206.82;1800459;78;21128;-82
2020/12/15 09:08:49;;;;;;;64.65;31.57;;;;;;;3.34;73.87;97209.11;1787407;80;21054;-82
2020/12/15 09:11:18;;;;;;;66.20;34.08;;;;;;;3.34;74.20;97212.17;1787557;80;21154;-81
2020/12/15 09:14:02;;;;;;;65.30;34.15;;;;;;;3.40;73.99;97215.73;1805889;78;21366;-83
2020/12/15 09:16:36;;;;;;;74.37;34.48;;;;;;;3.33;74.37;97210.51;1795323;78;21598;-80
2020/12/15 09:19:21;;;;;;;72.87;36.85;;;;;;;3.31;74.48;97217.08;1808494;78;21128;-82
2020/12/15 09:24:45;;;;;;;69.27;32.03;;;;;;;3.30;74.74;97211.50;1827245;77;22749;-80
2020/12/15 09:27:38;;;;;;;64.42;30.40;;;;;;;3.26;74.75;97213.94;1808127;78;21108;-82
2020/12/15 09:30:07;;;;;;;57.90;30.85;;;;;;;3.31;74.70;97209.27;1810388;78;21421;-81
2020/12/15 09:32:37;;;;;;;63.05;32.80;;;;;;;3.31;74.58;97205.37;1772874;81;21149;-83
2020/12/15 09:35:07;;;;;;;67.15;33.30;;;;;;;3.34;74.73;97209.11;1724980;82;21236;-83
2020/12/15 09:37:38;;;;;;;62.40;31.85;;;;;;;3.42;74.82;97206.05;1743873;82;21150;-82
2020/12/15 09:40:09;;;;;;;69.58;33.78;;;;;;;3.54;74.73;97205.33;1812444;78;21585;-82
2020/12/15 09:42:44;;;;;;;73.62;35.15;;;;;;;3.61;74.46;97202.73;1819383;78;21380;-83
2020/12/15 09:45:13;;;;;;;71.80;36.60;;;;;;;3.60;74.37;97205.43;1811668;78;21492;-82
2020/12/15 09:47:42;;;;;;;69.80;35.43;;;;;;;3.63;74.54;97207.40;1787414;80;21226;-84
2020/12/15 09:50:12;;;;;;;69.15;35.10;;;;;;;3.72;74.48;97200.33;1787196;80;21019;-83
2020/12/15 09:52:41;;;;;;;70.35;37.10;;;;;;;3.84;74.35;97207.03;1792708;79;21177;-81
2020/12/15 09:55:10;;;;;;;69.77;36.73;;;;;;;3.88;74.30;97202.02;1808723;79;21350;-83
2020/12/15 09:57:39;;;;;;;70.67;42.13;;;;;;;4.01;74.12;97193.36;1809134;79;21552;-84
2020/12/15 10:00:07;;;;;;;76.22;46.55;;;;;;;4.13;73.73;97189.16;1808985;79;21149;-82
2020/12/15 10:02:36;;;;;;;71.17;47.23;;;;;;;4.12;73.47;97191.40;1768059;81;21137;-81
2020/12/15 10:05:10;;;;;;;76.30;46.13;;;;;;;4.12;73.40;97184.88;1809132;79;21133;-85
2020/12/15 10:07:38;;;;;;;80.22;45.17;;;;;;;4.20;73.32;97182.63;1809328;79;21184;-81
2020/12/15 10:10:07;;;;;;;92.00;52.35;;;;;;;4.32;72.89;97183.64;1768020;81;21670;-83
2020/12/15 10:12:39;;;;;;;100.53;55.50;;;;;;;4.40;72.59;97174.05;1807468;79;21148;-81
2020/12/15 10:15:10;;;;;;;94.50;53.45;;;;;;;4.36;72.15;97176.47;1768055;80;21105;-83
2020/12/15 10:17:40;;;;;;;79.85;44.10;;;;;;;4.34;72.39;97179.66;1768070;81;21106;-84
2020/12/15 10:20:09;;;;;;;67.92;42.48;;;;;;;4.37;72.44;97177.67;1768127;81;21611;-82
2020/12/15 10:22:38;;;;;;;71.60;44.60;;;;;;;4.42;72.48;97173.02;1768014;81;21221;-83
2020/12/15 10:25:08;;;;;;;80.40;46.48;;;;;;;4.48;72.50;97172.63;1745121;81;21204;-85
2020/12/15 10:27:37;;;;;;;71.42;42.13;;;;;;;4.50;72.45;97167.30;1750633;81;21260;-84
2020/12/15 10:30:06;;;;;;;75.97;43.05;;;;;;;4.50;72.45;97167.30;1751582;81;21234;-85
2020/12/15 10:32:34;;;;;;;61.80;39.73;;;;;;;4.47;72.48;97167.52;1752376;81;21222;-83
2020/12/15 10:35:05;;;;;;;60.90;36.23;;;;;;;4.47;72.56;97170.12;1752151;81;21146;-85
2020/12/15 10:37:35;;;;;;;49.53;30.60;;;;;;;4.43;72.77;97162.94;1743380;81;21189;-80
2020/12/15 10:40:06;;;;;;;37.48;23.55;;;;;;;4.46;72.95;97165.37;1763859;81;21504;-81
2020/12/15 10:42:36;;;;;;;35.28;20.15;;;;;;;4.51;73.26;97159.88;1764089;81;21183;-81
2020/12/15 10:45:07;;;;;;;31.68;17.90;;;;;;;4.50;73.10;97162.92;1759458;81;22612;-81
2020/12/15 10:47:36;;;;;;;33.53;20.32;;;;;;;4.51;73.17;97164.62;1733168;82;21658;-83
2020/12/15 10:50:05;;;;;;;38.17;19.02;;;;;;;4.57;73.21;97159.95;1733431;82;21198;-83
2020/12/15 10:52:45;;;;;;;47.83;20.25;;;;;;;4.65;72.82;97164.20;1735393;82;21059;-80
2020/12/15 10:55:43;;;;;;;39.98;17.45;;;;;;;4.66;72.56;97160.65;1716791;82;21149;-82
2020/12/15 10:58:57;;;;;;;42.27;19.07;;;;;;;4.63;72.76;97149.95;1733783;81;21162;-83
2020/12/15 11:01:26;;;;;;;43.13;17.73;;;;;;;4.68;72.59;97153.55;1733791;82;21599;-79
2020/12/15 11:03:56;;;;;;;36.53;17.40;;;;;;;4.67;72.38;97151.88;1733801;82;21284;-79
2020/12/15 11:06:26;;;;;;;37.55;20.10;;;;;;;4.64;72.64;97144.27;1733102;82;21622;-81
2020/12/15 11:08:56;;;;;;;34.30;17.65;;;;;;;4.63;72.48;97146.52;1735959;81;21234;-79
2020/12/15 11:11:25;;;;;;;33.75;19.07;;;;;;;4.59;72.76;97144.56;1742723;81;21398;-81
2020/12/15 11:13:54;;;;;;;29.10;18.98;;;;;;;4.49;73.18;97146.08;1757104;81;21290;-80
2020/12/15 11:16:27;;;;;;;32.23;20.57;;;;;;;4.45;73.25;97140.23;1758007;81;21260;-78
2020/12/15 11:18:56;;;;;;;42.83;20.60;;;;;;;4.45;73.27;97139.41;1760403;81;21625;-81
2020/12/15 11:21:26;;;;;;;44.05;24.35;;;;;;;4.42;73.46;97136.50;1767100;81;21168;-83
2020/12/15 11:23:55;;;;;;;40.05;26.55;;;;;;;4.45;73.54;97133.72;1760814;81;21717;-80
2020/12/15 11:26:50;;;;;;;38.58;22.62;;;;;;;4.52;73.45;97133.69;1820380;77;27533;-82
2020/12/15 11:29:24;;;;;;;41.13;26.82;;;;;;;4.51;73.57;97137.70;1796048;79;21301;-83
2020/12/15 11:31:55;;;;;;;36.98;20.68;;;;;;;4.50;73.48;97139.45;1796761;79;21285;-81
2020/12/15 11:34:25;;;;;;;35.35;20.60;;;;;;;4.50;73.85;97145.13;1796806;79;21214;-79
2020/12/15 11:36:57;;;;;;;37.38;20.65;;;;;;;4.53;74.02;97142.34;1785521;79;21077;-81
2020/12/15 11:39:28;;;;;;;38.48;21.65;;;;;;;4.53;73.96;97147.56;1809556;78;21546;-83
2020/12/15 11:41:59;;;;;;;39.58;21.33;;;;;;;4.49;74.07;97142.16;1824351;78;21128;-82
2020/12/15 11:44:34;;;;;;;34.30;19.77;;;;;;;4.49;74.03;97137.78;1822120;78;21343;-80
2020/12/15 11:47:04;;;;;;;33.88;19.37;;;;;;;4.51;73.91;97145.06;1824817;78;21220;-81
2020/12/15 11:49:33;;;;;;;34.23;18.82;;;;;;;4.43;74.02;97149.07;1824602;78;21112;-81
2020/12/15 11:52:03;;;;;;;35.80;19.87;;;;;;;4.36;74.00;97151.70;1786052;78;21171;-82